createdAt,value
2017-06-13T00:01:07.528Z,100635.99
2017-06-13T00:03:36.596Z,100636.85
2017-06-13T00:06:05.685Z,100638.41
2017-06-13T00:08:35.478Z,100638.66
2017-06-13T00:11:05.351Z,100638.44
2017-06-13T00:13:34.405Z,100641.05
2017-06-13T00:16:03.459Z,100644.48
2017-06-13T00:18:32.576Z,100640.00
2017-06-13T00:21:01.673Z,100643.19
2017-06-13T00:23:30.721Z,100653.28
2017-06-13T00:25:59.817Z,100649.25
2017-06-13T00:28:29.376Z,100657.44
2017-06-13T00:30:58.406Z,100653.33
2017-06-13T00:33:27.471Z,100654.84
2017-06-13T00:35:57.105Z,100652.21
2017-06-13T00:38:26.155Z,100650.26
2017-06-13T00:40:55.228Z,100648.67
2017-06-13T00:43:24.313Z,100646.68
2017-06-13T00:45:53.377Z,100652.18
2017-06-13T00:48:22.440Z,100647.16
2017-06-13T00:50:51.500Z,100645.75
2017-06-13T00:53:20.653Z,100648.00
2017-06-13T00:55:49.720Z,100647.42
2017-06-13T00:58:18.793Z,100651.72
2017-06-13T01:00:47.849Z,100649.44
2017-06-13T01:03:16.900Z,100648.50
2017-06-13T01:05:45.988Z,100641.81
2017-06-13T01:08:15.121Z,100658.43
2017-06-13T01:10:44.949Z,100654.38
2017-06-13T01:13:14.018Z,100649.11
2017-06-13T01:15:43.845Z,100646.91
2017-06-13T01:18:12.901Z,100646.95
2017-06-13T01:20:41.972Z,100654.47
2017-06-13T01:23:11.048Z,100644.81
2017-06-13T01:25:40.123Z,100646.33
2017-06-13T01:28:09.835Z,100652.70
2017-06-13T01:30:40.167Z,100650.81
2017-06-13T01:33:09.219Z,100645.36
2017-06-13T01:35:38.269Z,100653.05
2017-06-13T01:38:07.383Z,100649.41
2017-06-13T01:40:36.418Z,100646.63
2017-06-13T01:43:05.464Z,100652.33
2017-06-13T01:45:34.536Z,100645.58
2017-06-13T01:48:03.597Z,100646.01
2017-06-13T01:50:32.659Z,100645.75
2017-06-13T01:53:01.740Z,100647.95
2017-06-13T01:55:30.795Z,100645.57
2017-06-13T01:58:00.624Z,100649.59
2017-06-13T02:00:29.696Z,100642.94
2017-06-13T02:02:58.761Z,100644.42
2017-06-13T02:05:27.821Z,100637.55
2017-06-13T02:07:56.895Z,100642.11
2017-06-13T02:10:26.725Z,100645.17
2017-06-13T02:12:55.803Z,100640.77
2017-06-13T02:15:25.635Z,100641.13
2017-06-13T02:17:54.718Z,100644.78
2017-06-13T02:20:23.767Z,100649.14
2017-06-13T02:22:52.819Z,100647.23
2017-06-13T02:25:21.888Z,100652.33
2017-06-13T02:27:51.703Z,100642.32
2017-06-13T02:30:21.556Z,100647.37
2017-06-13T02:32:50.623Z,100653.91
2017-06-13T02:35:19.692Z,100648.94
2017-06-13T02:37:49.537Z,100648.53
2017-06-13T02:40:18.603Z,100652.94
2017-06-13T02:42:47.689Z,100651.56
2017-06-13T02:45:16.999Z,100657.87
2017-06-13T02:47:46.041Z,100651.16
2017-06-13T02:50:15.105Z,100652.89
2017-06-13T02:52:44.169Z,100648.62
2017-06-13T02:55:13.254Z,100648.38
2017-06-13T02:57:42.332Z,100653.06
2017-06-13T03:00:11.515Z,100641.55
2017-06-13T03:02:40.595Z,100650.19
2017-06-13T03:05:09.662Z,100646.75
2017-06-13T03:07:39.479Z,100648.42
2017-06-13T03:10:09.356Z,100649.25
2017-06-13T03:12:38.417Z,100656.48
2017-06-13T03:15:07.502Z,100650.13
2017-06-13T03:17:36.561Z,100654.27
2017-06-13T03:20:05.612Z,100656.86
2017-06-13T03:22:34.712Z,100658.63
2017-06-13T03:25:03.759Z,100660.19
2017-06-13T03:27:33.652Z,100660.19
2017-06-13T03:30:03.156Z,100658.08
2017-06-13T03:32:32.208Z,100658.63
2017-06-13T03:35:01.298Z,100657.31
2017-06-13T03:37:30.376Z,100659.73
2017-06-13T03:40:00.212Z,100660.17
2017-06-13T03:42:29.282Z,100663.17
2017-06-13T03:44:59.098Z,100663.13
2017-06-13T03:47:28.963Z,100669.98
2017-06-13T03:49:58.033Z,100671.98
2017-06-13T03:52:27.108Z,100673.98
2017-06-13T03:54:56.188Z,100675.48
2017-06-13T03:57:25.239Z,100672.14
2017-06-13T03:59:54.323Z,100672.46
2017-06-13T04:02:23.372Z,100676.00
2017-06-13T04:04:52.443Z,100681.73
2017-06-13T04:07:21.773Z,100678.52
2017-06-13T04:09:51.599Z,100680.20
2017-06-13T04:12:20.664Z,100678.72
2017-06-13T04:14:49.737Z,100673.75
2017-06-13T04:17:18.835Z,100679.34
2017-06-13T04:19:47.896Z,100681.56
2017-06-13T04:22:16.955Z,100682.41
2017-06-13T04:24:46.024Z,100690.75
2017-06-13T04:27:15.095Z,100692.73
2017-06-13T04:29:44.140Z,100689.35
2017-06-13T04:32:13.984Z,100692.36
2017-06-13T04:34:43.066Z,100690.81
2017-06-13T04:37:12.128Z,100688.84
2017-06-13T04:39:41.185Z,100684.09
2017-06-13T04:42:10.260Z,100691.17
2017-06-13T04:44:39.327Z,100692.59
2017-06-13T04:47:08.397Z,100694.51
2017-06-13T04:49:37.504Z,100693.25
2017-06-13T04:52:07.468Z,100688.61
2017-06-13T04:54:36.564Z,100694.80
2017-06-13T04:57:05.723Z,100695.38
2017-06-13T04:59:34.795Z,100696.04
2017-06-13T05:02:03.877Z,100701.73
2017-06-13T05:04:32.936Z,100711.39
2017-06-13T05:07:02.033Z,100709.31
2017-06-13T05:09:31.835Z,100709.99
2017-06-13T05:12:01.687Z,100705.49
2017-06-13T05:14:30.741Z,100715.39
2017-06-13T05:17:00.556Z,100712.60
2017-06-13T05:19:29.654Z,100708.96
2017-06-13T05:21:59.458Z,100712.04
2017-06-13T05:24:28.541Z,100716.81
2017-06-13T05:26:57.607Z,100713.45
2017-06-13T05:29:26.680Z,100714.75
2017-06-13T05:31:55.740Z,100720.71
2017-06-13T05:34:25.571Z,100719.86
2017-06-13T05:36:54.627Z,100720.30
2017-06-13T05:39:23.692Z,100721.20
2017-06-13T05:41:52.781Z,100715.59
2017-06-13T05:44:21.830Z,100713.71
2017-06-13T05:46:51.656Z,100709.75
2017-06-13T05:49:20.743Z,100708.53
2017-06-13T05:51:50.574Z,100715.81
2017-06-13T05:54:19.631Z,100716.20
2017-06-13T05:56:48.720Z,100714.63
2017-06-13T05:59:17.787Z,100711.37
2017-06-13T06:01:46.855Z,100713.22
2017-06-13T06:04:15.936Z,100713.09
2017-06-13T06:06:45.020Z,100711.78
2017-06-13T06:09:14.891Z,100720.80
2017-06-13T06:11:43.967Z,100717.28
2017-06-13T06:14:13.020Z,100713.45
2017-06-13T06:16:42.865Z,100715.95
2017-06-13T06:19:11.919Z,100718.83
2017-06-13T06:21:40.988Z,100723.30
2017-06-13T06:24:10.061Z,100725.22
2017-06-13T06:26:39.120Z,100725.16
2017-06-13T06:29:09.152Z,100726.34
2017-06-13T06:31:38.219Z,100723.11
2017-06-13T06:34:07.307Z,100728.44
2017-06-13T06:36:36.453Z,100731.98
2017-06-13T06:39:05.513Z,100734.52
2017-06-13T06:41:35.337Z,100737.91
2017-06-13T06:44:05.235Z,100741.09
2017-06-13T06:46:34.291Z,100741.85
2017-06-13T06:49:03.346Z,100745.45
2017-06-13T06:51:32.440Z,100749.58
2017-06-13T06:54:01.511Z,100752.70
2017-06-13T06:56:30.576Z,100748.21
2017-06-13T06:58:59.658Z,100746.26
2017-06-13T07:01:28.725Z,100750.23
2017-06-13T07:03:57.804Z,100755.55
2017-06-13T07:06:27.636Z,100758.80
2017-06-13T07:08:56.720Z,100756.66
2017-06-13T07:11:26.560Z,100760.62
2017-06-13T07:13:55.639Z,100765.36
2017-06-13T07:16:25.469Z,100765.61
2017-06-13T07:18:54.561Z,100760.41
2017-06-13T07:21:23.627Z,100763.77
2017-06-13T07:23:53.465Z,100754.84
2017-06-13T07:26:22.566Z,100754.73
2017-06-13T07:28:52.327Z,100761.02
2017-06-13T07:31:21.547Z,100764.30
2017-06-13T07:33:51.684Z,100757.74
2017-06-13T07:36:20.752Z,100760.58
2017-06-13T07:38:50.453Z,100761.81
2017-06-13T07:41:19.516Z,100758.27
2017-06-13T07:43:48.601Z,100762.91
2017-06-13T07:46:17.662Z,100762.89
2017-06-13T07:48:47.489Z,100762.70
2017-06-13T07:51:16.567Z,100758.81
2017-06-13T07:53:46.404Z,100763.53
2017-06-13T07:56:15.477Z,100758.12
2017-06-13T07:58:45.317Z,100762.34
2017-06-13T08:01:14.426Z,100762.12
2017-06-13T08:03:43.508Z,100770.39
2017-06-13T08:06:12.552Z,100768.68
2017-06-13T08:08:41.649Z,100773.34
2017-06-13T08:11:10.939Z,100772.92
2017-06-13T08:13:40.026Z,100774.06
2017-06-13T08:16:09.144Z,100770.03
2017-06-13T08:18:39.017Z,100765.30
2017-06-13T08:21:08.076Z,100764.22
2017-06-13T08:23:37.925Z,100775.27
2017-06-13T08:26:07.565Z,100779.80
2017-06-13T08:28:36.617Z,100776.97
2017-06-13T08:31:05.753Z,100780.91
2017-06-13T08:33:34.825Z,100778.80
2017-06-13T08:36:03.889Z,100777.64
2017-06-13T08:38:32.976Z,100770.28
2017-06-13T08:41:02.064Z,100771.86
2017-06-13T08:43:32.036Z,100769.51
2017-06-13T08:46:01.097Z,100768.39
2017-06-13T08:48:30.149Z,100762.41
2017-06-13T08:50:59.239Z,100773.58
2017-06-13T08:53:28.309Z,100773.19
2017-06-13T08:55:57.359Z,100780.64
2017-06-13T08:58:26.742Z,100777.22
2017-06-13T09:00:55.764Z,100771.63
2017-06-13T09:03:24.857Z,100775.55
2017-06-13T09:05:53.909Z,100774.19
2017-06-13T09:08:22.988Z,100776.66
2017-06-13T09:10:52.039Z,100772.20
2017-06-13T09:13:21.310Z,100767.02
2017-06-13T09:15:50.392Z,100767.23
2017-06-13T09:18:19.471Z,100774.28
2017-06-13T09:20:48.534Z,100775.87
2017-06-13T09:23:17.596Z,100775.97
2017-06-13T09:25:46.665Z,100775.98
2017-06-13T09:28:15.740Z,100777.69
2017-06-13T09:30:45.109Z,100782.42
2017-06-13T09:33:14.989Z,100783.02
2017-06-13T09:35:44.050Z,100779.81
2017-06-13T09:38:13.115Z,100772.86
2017-06-13T09:40:43.081Z,100771.92
2017-06-13T09:43:12.147Z,100769.86
2017-06-13T09:45:41.219Z,100763.06
2017-06-13T09:48:10.854Z,100761.38
2017-06-13T09:50:39.912Z,100760.53
2017-06-13T09:53:09.783Z,100760.50
2017-06-13T09:55:39.737Z,100759.00
2017-06-13T09:58:09.619Z,100757.15
2017-06-13T10:00:38.660Z,100759.39
2017-06-13T10:03:08.517Z,100762.16
2017-06-13T10:05:37.867Z,100764.73
2017-06-13T10:08:07.705Z,100770.91
2017-06-13T10:10:37.544Z,100768.94
2017-06-13T10:13:06.627Z,100771.59
2017-06-13T10:15:35.684Z,100774.11
2017-06-13T10:18:05.588Z,100773.44
2017-06-13T10:20:34.620Z,100771.08
2017-06-13T10:23:03.678Z,100773.14
2017-06-13T10:25:33.520Z,100778.47
2017-06-13T10:28:02.563Z,100783.00
2017-06-13T10:30:31.627Z,100769.80
2017-06-13T10:33:00.702Z,100777.50
2017-06-13T10:35:29.766Z,100778.53
2017-06-13T10:37:58.867Z,100773.75
2017-06-13T10:40:27.950Z,100779.44
2017-06-13T10:42:57.030Z,100782.48
2017-06-13T10:45:26.063Z,100785.42
2017-06-13T10:47:55.897Z,100780.39
2017-06-13T10:50:24.987Z,100780.53
2017-06-13T10:52:54.072Z,100788.77
2017-06-13T10:55:23.156Z,100789.97
2017-06-13T10:57:52.981Z,100782.25
2017-06-13T11:00:22.097Z,100778.22
2017-06-13T11:02:51.156Z,100784.50
2017-06-13T11:05:21.003Z,100781.12
2017-06-13T11:07:50.111Z,100786.92
2017-06-13T11:10:19.151Z,100786.14
2017-06-13T11:12:48.208Z,100785.66
2017-06-13T11:15:17.286Z,100793.30
2017-06-13T11:17:46.344Z,100792.91
2017-06-13T11:20:16.176Z,100798.20
2017-06-13T11:22:45.247Z,100798.77
2017-06-13T11:25:14.680Z,100799.39
2017-06-13T11:27:43.756Z,100808.56
2017-06-13T11:30:12.837Z,100800.95
2017-06-13T11:32:41.911Z,100803.30
2017-06-13T11:35:10.968Z,100803.56
2017-06-13T11:37:41.176Z,100794.50
2017-06-13T11:40:10.241Z,100794.69
2017-06-13T11:42:39.317Z,100798.23
2017-06-13T11:45:08.663Z,100796.59
2017-06-13T11:47:38.484Z,100802.63
2017-06-13T11:50:07.556Z,100811.02
2017-06-13T11:52:36.634Z,100809.55
2017-06-13T11:55:06.026Z,100813.62
2017-06-13T11:57:35.072Z,100812.83
2017-06-13T12:00:04.274Z,100805.65
2017-06-13T12:02:34.103Z,100808.22
2017-06-13T12:05:03.219Z,100810.60
2017-06-13T12:07:32.282Z,100802.13
2017-06-13T12:10:01.467Z,100810.42
2017-06-13T12:12:31.338Z,100809.79
2017-06-13T12:15:00.395Z,100806.73
2017-06-13T12:17:29.456Z,100802.98
2017-06-13T12:19:59.287Z,100808.05
2017-06-13T12:22:29.136Z,100806.96
2017-06-13T12:24:58.196Z,100807.11
2017-06-13T12:27:27.244Z,100813.54
2017-06-13T12:29:56.324Z,100809.72
2017-06-13T12:32:25.395Z,100807.28
2017-06-13T12:34:54.577Z,100808.31
2017-06-13T12:37:23.650Z,100811.11
2017-06-13T12:39:53.480Z,100802.52
2017-06-13T12:42:23.324Z,100802.70
2017-06-13T12:44:52.466Z,100797.95
2017-06-13T12:47:22.088Z,100798.75
2017-06-13T12:49:52.306Z,100800.91
2017-06-13T12:52:21.372Z,100796.58
2017-06-13T12:54:52.417Z,100795.93
2017-06-13T12:57:21.476Z,100794.95
2017-06-13T12:59:51.182Z,100789.87
2017-06-13T13:02:20.284Z,100783.03
2017-06-13T13:04:49.428Z,100782.52
2017-06-13T13:07:18.916Z,100791.28
2017-06-13T13:09:48.063Z,100785.02
2017-06-13T13:12:17.165Z,100784.18
2017-06-13T13:14:46.235Z,100790.09
2017-06-13T13:17:16.133Z,100794.83
2017-06-13T13:19:45.166Z,100792.58
2017-06-13T13:22:14.234Z,100797.31
2017-06-13T13:24:43.295Z,100794.68
2017-06-13T13:27:12.354Z,100791.13
2017-06-13T13:29:41.419Z,100792.73
2017-06-13T13:32:10.857Z,100797.06
2017-06-13T13:34:39.935Z,100787.89
2017-06-13T13:37:09.757Z,100797.62
2017-06-13T13:39:39.572Z,100788.16
2017-06-13T13:42:08.897Z,100791.73
2017-06-13T13:44:37.968Z,100788.02
2017-06-13T13:47:07.047Z,100783.77
2017-06-13T13:49:36.853Z,100784.50
2017-06-13T13:52:06.723Z,100786.40
2017-06-13T13:54:35.792Z,100788.17
2017-06-13T13:57:04.885Z,100797.20
2017-06-13T13:59:33.945Z,100796.47
2017-06-13T14:02:03.776Z,100793.97
2017-06-13T14:04:33.613Z,100791.39
2017-06-13T14:07:02.678Z,100790.33
2017-06-13T14:09:31.739Z,100801.94
2017-06-13T14:12:00.817Z,100798.84
2017-06-13T14:14:29.869Z,100812.09
2017-06-13T14:16:58.919Z,100801.42
2017-06-13T14:19:27.992Z,100803.39
2017-06-13T14:21:57.080Z,100806.75
2017-06-13T14:24:26.156Z,100811.88
2017-06-13T14:26:55.280Z,100809.38
2017-06-13T14:29:24.320Z,100816.23
2017-06-13T14:31:53.358Z,100811.09
2017-06-13T14:34:22.776Z,100814.98
2017-06-13T14:36:51.964Z,100803.05
2017-06-13T14:39:21.056Z,100804.90
2017-06-13T14:41:50.148Z,100804.04
2017-06-13T14:44:19.245Z,100806.00
2017-06-13T14:46:48.687Z,100805.89
2017-06-13T14:49:19.358Z,100800.48
2017-06-13T14:51:48.396Z,100805.58
2017-06-13T14:54:17.769Z,100806.02
2017-06-13T14:56:46.835Z,100806.03
2017-06-13T14:59:16.095Z,100810.63
2017-06-13T15:01:45.164Z,100804.17
2017-06-13T15:04:14.260Z,100801.53
2017-06-13T15:06:43.315Z,100800.94
2017-06-13T15:09:12.517Z,100806.91
2017-06-13T15:11:41.564Z,100803.36
2017-06-13T15:14:10.756Z,100800.99
2017-06-13T15:16:40.170Z,100805.34
2017-06-13T15:19:09.348Z,100806.81
2017-06-13T15:21:38.425Z,100806.01
2017-06-13T15:24:07.484Z,100800.75
2017-06-13T15:26:36.565Z,100802.47
2017-06-13T15:29:05.676Z,100806.67
2017-06-13T15:31:34.753Z,100809.64
2017-06-13T15:34:03.831Z,100808.30
2017-06-13T15:36:32.934Z,100813.00
2017-06-13T15:39:02.003Z,100804.23
2017-06-13T15:41:31.072Z,100809.77
2017-06-13T15:44:00.901Z,100810.61
2017-06-13T15:46:29.983Z,100810.87
2017-06-13T15:48:59.824Z,100808.31
2017-06-13T15:51:28.865Z,100803.52
2017-06-13T15:53:57.917Z,100802.00
2017-06-13T15:56:26.985Z,100805.10
2017-06-13T15:58:57.088Z,100797.32
2017-06-13T16:01:26.150Z,100799.95
2017-06-13T16:03:55.192Z,100799.82
2017-06-13T16:06:24.415Z,100800.41
2017-06-13T16:08:53.764Z,100803.89
2017-06-13T16:11:22.838Z,100802.23
2017-06-13T16:13:51.943Z,100800.33
2017-06-13T16:16:20.970Z,100803.10
2017-06-13T16:18:50.907Z,100805.38
2017-06-13T16:21:19.989Z,100804.99
2017-06-13T16:23:50.135Z,100810.34
2017-06-13T16:26:19.207Z,100804.98
2017-06-13T16:28:48.559Z,100810.98
2017-06-13T16:31:17.863Z,100809.22
2017-06-13T16:33:46.919Z,100810.19
2017-06-13T16:36:15.995Z,100803.89
2017-06-13T16:38:45.833Z,100803.36
2017-06-13T16:41:14.931Z,100808.24
2017-06-13T16:43:44.002Z,100799.41
2017-06-13T16:46:13.836Z,100799.68
2017-06-13T16:48:42.899Z,100800.30
2017-06-13T16:51:12.745Z,100793.25
2017-06-13T16:53:41.804Z,100792.92
2017-06-13T16:56:11.635Z,100795.34
2017-06-13T16:58:40.676Z,100788.77
2017-06-13T17:01:09.886Z,100795.70
2017-06-13T17:03:38.936Z,100787.53
2017-06-13T17:06:08.220Z,100783.69
2017-06-13T17:08:37.280Z,100782.64
2017-06-13T17:11:07.881Z,100784.41
2017-06-13T17:13:38.493Z,100785.34
2017-06-13T17:16:07.605Z,100782.87
2017-06-13T17:18:36.671Z,100780.08
2017-06-13T17:21:05.709Z,100790.81
2017-06-13T17:23:34.803Z,100786.88
2017-06-13T17:26:03.856Z,100790.30
2017-06-13T17:28:32.956Z,100793.42
2017-06-13T17:31:02.524Z,100788.28
2017-06-13T17:33:31.585Z,100795.59
2017-06-13T17:36:00.637Z,100797.70
2017-06-13T17:38:30.940Z,100792.34
2017-06-13T17:41:00.020Z,100790.70
2017-06-13T17:43:29.117Z,100786.64
2017-06-13T17:45:58.579Z,100790.91
2017-06-13T17:48:27.641Z,100789.59
2017-06-13T17:50:57.447Z,100797.27
2017-06-13T17:53:26.502Z,100791.16
2017-06-13T17:55:55.612Z,100795.12
2017-06-13T17:58:24.884Z,100787.52
2017-06-13T18:00:53.939Z,100787.43
2017-06-13T18:03:23.772Z,100791.77
2017-06-13T18:05:52.849Z,100786.84
2017-06-13T18:08:21.959Z,100790.57
2017-06-13T18:10:51.492Z,100786.95
2017-06-13T18:13:20.596Z,100789.89
2017-06-13T18:15:50.185Z,100787.98
2017-06-13T18:18:19.243Z,100789.14
2017-06-13T18:20:48.377Z,100784.72
2017-06-13T18:23:18.488Z,100783.31
2017-06-13T18:25:48.096Z,100789.23
2017-06-13T18:28:17.167Z,100785.57
2017-06-13T18:30:46.245Z,100789.02
2017-06-13T18:33:15.385Z,100795.11
2017-06-13T18:35:44.425Z,100796.33
2017-06-13T18:38:13.524Z,100795.65
2017-06-13T18:40:42.608Z,100795.44
2017-06-13T18:43:11.652Z,100794.74
2017-06-13T18:45:46.061Z,100786.95
2017-06-13T18:48:16.446Z,100790.16
2017-06-13T18:50:45.548Z,100793.27
2017-06-13T18:53:14.657Z,100789.20
2017-06-13T18:55:43.713Z,100791.49
2017-06-13T18:58:12.905Z,100791.47
2017-06-13T19:00:41.962Z,100790.06
2017-06-13T19:03:12.192Z,100795.66
2017-06-13T19:05:42.155Z,100795.16
2017-06-13T19:08:11.239Z,100796.98
2017-06-13T19:10:40.384Z,100801.00
2017-06-13T19:13:09.511Z,100799.33
2017-06-13T19:15:38.721Z,100795.14
2017-06-13T19:18:07.812Z,100803.97
2017-06-13T19:20:37.093Z,100803.20
2017-06-13T19:23:07.585Z,100805.70
2017-06-13T19:25:36.681Z,100803.13
2017-06-13T19:28:06.340Z,100806.72
2017-06-13T19:30:35.416Z,100810.02
2017-06-13T19:33:05.285Z,100812.95
2017-06-13T19:35:34.346Z,100813.14
2017-06-13T19:38:03.445Z,100808.05
2017-06-13T19:40:32.517Z,100815.50
2017-06-13T19:43:02.358Z,100817.34
2017-06-13T19:45:32.221Z,100810.16
2017-06-13T19:48:01.264Z,100813.23
2017-06-13T19:50:30.310Z,100820.20
2017-06-13T19:52:59.380Z,100824.59
2017-06-13T19:55:28.437Z,100823.37
2017-06-13T19:57:57.886Z,100819.73
2017-06-13T20:00:26.945Z,100822.09
2017-06-13T20:02:56.636Z,100828.03
2017-06-13T20:05:26.793Z,100832.30
2017-06-13T20:07:55.856Z,100831.74
2017-06-13T20:10:24.916Z,100829.20
2017-06-13T20:12:54.731Z,100834.25
2017-06-13T20:15:23.989Z,100834.81
2017-06-13T20:17:53.294Z,100834.83
2017-06-13T20:20:22.598Z,100833.97
2017-06-13T20:23:10.183Z,100832.14
2017-06-13T20:25:44.677Z,100835.94
2017-06-13T20:28:16.873Z,100844.75
2017-06-13T20:30:45.946Z,100849.87
2017-06-13T20:33:15.004Z,100847.91
2017-06-13T20:35:44.055Z,100846.14
2017-06-13T20:38:13.928Z,100846.47
2017-06-13T20:40:43.001Z,100848.85
2017-06-13T20:43:12.052Z,100849.27
2017-06-13T20:45:41.868Z,100857.95
2017-06-13T20:48:11.727Z,100854.38
2017-06-13T20:50:40.780Z,100860.66
2017-06-13T20:53:10.599Z,100857.05
2017-06-13T20:55:40.449Z,100854.36
2017-06-13T20:58:09.667Z,100860.00
2017-06-13T21:00:38.725Z,100852.30
2017-06-13T21:03:07.905Z,100860.50
2017-06-13T21:05:37.819Z,100855.04
2017-06-13T21:08:07.648Z,100861.36
2017-06-13T21:10:36.705Z,100864.54
2017-06-13T21:13:05.792Z,100857.59
2017-06-13T21:15:35.732Z,100857.35
2017-06-13T21:18:05.566Z,100864.59
2017-06-13T21:20:34.658Z,100869.71
2017-06-13T21:23:03.737Z,100870.75
2017-06-13T21:25:32.769Z,100864.47
2017-06-13T21:28:01.847Z,100860.55
2017-06-13T21:30:30.904Z,100864.51
2017-06-13T21:32:59.979Z,100866.14
2017-06-13T21:35:29.035Z,100864.03
2017-06-13T21:37:58.097Z,100861.96
2017-06-13T21:40:27.949Z,100868.20
2017-06-13T21:42:57.035Z,100860.16
2017-06-13T21:45:26.119Z,100859.84
2017-06-13T21:47:55.944Z,100861.63
2017-06-13T21:50:25.323Z,100856.66
2017-06-13T21:52:54.367Z,100855.70
2017-06-13T21:55:23.547Z,100859.08
2017-06-13T21:57:52.636Z,100857.56
2017-06-13T22:00:21.724Z,100851.11
2017-06-13T22:02:52.020Z,100851.11
2017-06-13T22:05:21.144Z,100844.43
2017-06-13T22:07:50.693Z,100843.23
2017-06-13T22:10:19.799Z,100846.02
2017-06-13T22:12:49.185Z,100848.00
2017-06-13T22:15:18.550Z,100856.92
2017-06-13T22:17:48.024Z,100852.24
2017-06-13T22:20:17.109Z,100862.14
2017-06-13T22:22:46.716Z,100859.84
2017-06-13T22:25:16.115Z,100866.11
2017-06-13T22:27:45.442Z,100880.91
2017-06-13T22:30:14.496Z,100880.50
2017-06-13T22:32:43.540Z,100882.14
2017-06-13T22:35:12.618Z,100886.01
2017-06-13T22:37:41.669Z,100886.25
2017-06-13T22:40:10.738Z,100880.23
2017-06-13T22:42:39.799Z,100879.83
2017-06-13T22:45:09.355Z,100877.04
2017-06-13T22:47:38.397Z,100879.41
2017-06-13T22:50:07.509Z,100875.25
2017-06-13T22:52:36.580Z,100874.14
2017-06-13T22:55:05.628Z,100869.98
2017-06-13T22:57:34.761Z,100872.07
2017-06-13T23:00:03.819Z,100872.90
2017-06-13T23:02:32.852Z,100875.98
2017-06-13T23:05:01.972Z,100875.64
2017-06-13T23:07:31.065Z,100877.75
2017-06-13T23:10:00.892Z,100879.23
2017-06-13T23:12:29.961Z,100878.61
2017-06-13T23:14:59.021Z,100877.90
2017-06-13T23:17:28.072Z,100879.89
2017-06-13T23:19:57.163Z,100888.28
2017-06-13T23:22:26.192Z,100883.95
2017-06-13T23:24:55.265Z,100879.75
2017-06-13T23:27:24.304Z,100884.17
2017-06-13T23:29:53.400Z,100887.17
2017-06-13T23:32:22.445Z,100885.63
2017-06-13T23:34:51.623Z,100887.48
2017-06-13T23:37:20.692Z,100886.52
2017-06-13T23:39:50.272Z,100892.56
2017-06-13T23:42:19.329Z,100896.73
2017-06-13T23:44:48.718Z,100888.08
2017-06-13T23:47:18.352Z,100891.22
2017-06-13T23:49:47.435Z,100893.45
2017-06-13T23:52:16.515Z,100892.22
2017-06-13T23:54:45.564Z,100898.37
2017-06-13T23:57:14.692Z,100900.23
2017-06-13T23:59:43.752Z,100903.82
